createdAt,value
2018-02-08T00:01:25.441Z,75.42
2018-02-08T00:03:52.959Z,75.14
2018-02-08T00:06:20.483Z,75.33
2018-02-08T00:08:48.044Z,75.31
2018-02-08T00:11:15.574Z,75.31
2018-02-08T00:13:43.097Z,75.21
2018-02-08T00:16:10.628Z,75.25
2018-02-08T00:18:38.149Z,75.21
2018-02-08T00:21:05.675Z,75.59
2018-02-08T00:23:33.201Z,75.44
2018-02-08T00:26:00.730Z,75.68
2018-02-08T00:28:28.257Z,75.64
2018-02-08T00:30:55.801Z,75.70
2018-02-08T00:33:23.334Z,75.58
2018-02-08T00:35:50.860Z,75.69
2018-02-08T00:38:18.395Z,75.30
2018-02-08T00:40:45.939Z,75.51
2018-02-08T00:43:13.471Z,75.81
2018-02-08T00:45:41.001Z,75.72
2018-02-08T00:48:08.524Z,75.49
2018-02-08T00:50:36.048Z,75.68
2018-02-08T00:53:03.578Z,75.88
2018-02-08T00:55:31.100Z,74.92
2018-02-08T00:57:58.623Z,75.57
2018-02-08T01:00:26.152Z,75.27
2018-02-08T01:02:53.676Z,75.81
2018-02-08T01:05:21.200Z,75.79
2018-02-08T01:07:48.732Z,75.59
2018-02-08T01:10:16.262Z,75.77
2018-02-08T01:12:43.805Z,75.81
2018-02-08T01:15:11.336Z,75.89
2018-02-08T01:17:38.864Z,75.76
2018-02-08T01:20:06.388Z,75.75
2018-02-08T01:22:33.935Z,75.36
2018-02-08T01:25:01.473Z,75.73
2018-02-08T01:27:28.992Z,75.94
2018-02-08T01:29:56.516Z,75.77
2018-02-08T01:32:24.052Z,75.88
2018-02-08T01:34:51.581Z,75.80
2018-02-08T01:37:19.107Z,75.80
2018-02-08T01:39:46.626Z,75.51
2018-02-08T01:42:14.159Z,75.13
2018-02-08T01:44:41.693Z,75.30
2018-02-08T01:47:09.227Z,75.14
2018-02-08T01:49:45.603Z,75.08
2018-02-08T01:52:13.128Z,74.65
2018-02-08T01:54:40.661Z,74.90
2018-02-08T01:57:08.185Z,74.68
2018-02-08T01:59:35.706Z,74.81
2018-02-08T02:02:03.237Z,74.63
2018-02-08T02:04:30.752Z,74.57
2018-02-08T02:06:58.317Z,74.56
2018-02-08T02:09:25.843Z,74.44
2018-02-08T02:11:53.375Z,74.35
2018-02-08T02:14:20.936Z,74.37
2018-02-08T02:16:48.451Z,73.75
2018-02-08T02:19:15.984Z,74.06
2018-02-08T02:21:43.509Z,74.15
2018-02-08T02:24:11.028Z,73.81
2018-02-08T02:26:38.540Z,73.91
2018-02-08T02:29:06.085Z,73.70
2018-02-08T02:31:33.599Z,73.59
2018-02-08T02:34:01.132Z,73.47
2018-02-08T02:36:28.660Z,73.60
2018-02-08T02:38:56.184Z,73.35
2018-02-08T02:41:23.712Z,73.21
2018-02-08T02:43:51.236Z,73.12
2018-02-08T02:46:18.759Z,73.23
2018-02-08T02:48:46.296Z,72.77
2018-02-08T02:51:13.816Z,72.73
2018-02-08T02:53:41.337Z,72.77
2018-02-08T02:56:08.865Z,72.83
2018-02-08T02:58:36.383Z,73.32
2018-02-08T03:01:03.916Z,73.13
2018-02-08T03:03:31.432Z,73.42
2018-02-08T03:05:58.960Z,73.43
2018-02-08T03:08:26.488Z,73.06
2018-02-08T03:10:54.009Z,72.74
2018-02-08T03:13:21.546Z,72.46
2018-02-08T03:15:49.060Z,72.32
2018-02-08T03:18:16.596Z,72.09
2018-02-08T03:20:44.128Z,71.70
2018-02-08T03:23:11.647Z,71.24
2018-02-08T03:25:39.165Z,70.95
2018-02-08T03:28:06.700Z,70.75
2018-02-08T03:30:35.655Z,70.56
2018-02-08T03:33:03.186Z,70.72
2018-02-08T03:35:30.708Z,70.98
2018-02-08T03:37:58.233Z,71.02
2018-02-08T03:40:25.756Z,71.15
2018-02-08T03:42:53.289Z,71.16
2018-02-08T03:45:20.810Z,71.30
2018-02-08T03:47:48.328Z,71.63
2018-02-08T03:50:15.865Z,71.40
2018-02-08T03:52:43.387Z,71.36
2018-02-08T03:55:10.908Z,71.52
2018-02-08T03:57:38.441Z,71.57
2018-02-08T04:00:05.965Z,71.45
2018-02-08T04:02:33.501Z,71.48
2018-02-08T04:05:01.021Z,71.62
2018-02-08T04:07:28.538Z,71.49
2018-02-08T04:09:56.065Z,71.49
2018-02-08T04:12:23.599Z,71.62
2018-02-08T04:14:51.113Z,71.44
2018-02-08T04:17:18.642Z,71.37
2018-02-08T04:19:46.175Z,71.54
2018-02-08T04:22:13.699Z,71.44
2018-02-08T04:24:41.229Z,71.88
2018-02-08T04:27:08.753Z,71.86
2018-02-08T04:29:36.278Z,72.14
2018-02-08T04:32:03.821Z,71.87
2018-02-08T04:36:58.169Z,72.48
2018-02-08T04:39:37.605Z,72.56
2018-02-08T04:42:16.996Z,72.41
2018-02-08T04:44:56.432Z,72.25
2018-02-08T04:47:32.646Z,72.42
2018-02-08T04:50:00.176Z,72.60
2018-02-08T04:52:27.703Z,72.82
2018-02-08T04:54:55.220Z,73.51
2018-02-08T04:57:22.745Z,73.24
2018-02-08T04:59:50.286Z,73.49
2018-02-08T05:02:19.700Z,73.08
2018-02-08T05:04:47.222Z,73.43
2018-02-08T05:07:14.763Z,73.71
2018-02-08T05:09:42.284Z,74.33
2018-02-08T05:12:09.810Z,73.96
2018-02-08T05:14:37.340Z,74.38
2018-02-08T05:17:04.852Z,74.39
2018-02-08T05:19:32.376Z,73.66
2018-02-08T05:21:59.923Z,73.54
2018-02-08T05:24:27.468Z,73.30
2018-02-08T05:26:55.022Z,74.00
2018-02-08T05:29:22.546Z,73.91
2018-02-08T05:31:50.059Z,73.91
2018-02-08T05:34:17.596Z,74.01
2018-02-08T05:36:45.119Z,74.20
2018-02-08T05:39:12.650Z,74.18
2018-02-08T05:41:40.342Z,74.20
2018-02-08T05:44:07.860Z,74.33
2018-02-08T05:46:35.389Z,74.51
2018-02-08T05:49:02.919Z,74.75
2018-02-08T05:51:30.447Z,74.79
2018-02-08T05:53:57.987Z,74.92
2018-02-08T05:56:25.510Z,75.05
2018-02-08T05:58:53.038Z,74.92
2018-02-08T06:01:20.565Z,75.41
2018-02-08T06:03:48.084Z,75.56
2018-02-08T06:06:15.601Z,75.69
2018-02-08T06:08:43.128Z,75.98
2018-02-08T06:11:10.669Z,76.15
2018-02-08T06:13:38.187Z,76.12
2018-02-08T06:16:05.716Z,75.66
2018-02-08T06:18:33.236Z,75.57
2018-02-08T06:21:00.764Z,76.03
2018-02-08T06:23:28.300Z,75.91
2018-02-08T06:25:55.815Z,76.30
2018-02-08T06:28:23.371Z,76.28
2018-02-08T06:30:50.905Z,75.48
2018-02-08T06:33:18.428Z,76.40
2018-02-08T06:35:45.954Z,76.03
2018-02-08T06:38:13.483Z,75.88
2018-02-08T06:40:41.001Z,75.70
2018-02-08T06:43:08.525Z,75.82
2018-02-08T06:45:36.054Z,76.15
2018-02-08T06:48:03.584Z,75.79
2018-02-08T06:50:31.103Z,76.58
2018-02-08T06:52:58.630Z,76.13
2018-02-08T06:55:26.153Z,76.33
2018-02-08T06:57:53.713Z,75.85
2018-02-08T07:00:21.241Z,75.92
2018-02-08T07:02:48.773Z,76.02
2018-02-08T07:05:16.295Z,75.85
2018-02-08T07:07:43.816Z,75.81
2018-02-08T07:10:11.344Z,75.43
2018-02-08T07:12:38.873Z,75.49
2018-02-08T07:15:06.393Z,75.19
2018-02-08T07:17:33.924Z,75.03
2018-02-08T07:20:11.962Z,75.89
2018-02-08T07:22:39.493Z,75.18
2018-02-08T07:25:07.015Z,75.43
2018-02-08T07:27:34.548Z,75.32
2018-02-08T07:30:02.110Z,75.42
2018-02-08T07:32:29.660Z,75.16
2018-02-08T07:34:57.232Z,74.36
2018-02-08T07:37:24.760Z,74.75
2018-02-08T07:39:52.290Z,73.40
2018-02-08T07:42:19.826Z,73.22
2018-02-08T07:44:47.386Z,72.64
2018-02-08T07:47:15.100Z,73.13
2018-02-08T07:49:42.622Z,72.87
2018-02-08T07:52:10.152Z,72.48
2018-02-08T07:54:37.684Z,72.62
2018-02-08T07:57:05.221Z,72.79
2018-02-08T07:59:32.756Z,72.88
2018-02-08T08:02:00.286Z,72.31
2018-02-08T08:04:27.807Z,72.01
2018-02-08T08:06:55.327Z,71.34
2018-02-08T08:09:22.877Z,69.75
2018-02-08T08:11:50.412Z,69.17
2018-02-08T08:14:17.948Z,69.10
2018-02-08T08:16:45.481Z,68.75
2018-02-08T08:19:13.011Z,67.83
2018-02-08T08:21:40.527Z,66.14
2018-02-08T08:24:08.072Z,65.80
2018-02-08T08:26:35.591Z,64.66
2018-02-08T08:29:03.104Z,62.51
2018-02-08T08:31:30.625Z,60.96
2018-02-08T08:33:58.136Z,62.24
2018-02-08T08:36:25.664Z,60.27
2018-02-08T08:38:53.194Z,61.46
2018-02-08T08:41:20.711Z,60.44
2018-02-08T08:43:48.235Z,58.67
2018-02-08T08:46:15.748Z,59.72
2018-02-08T08:48:43.277Z,57.46
2018-02-08T08:51:10.793Z,58.18
2018-02-08T08:53:38.309Z,59.46
2018-02-08T08:56:05.841Z,57.02
2018-02-08T08:58:33.352Z,57.08
2018-02-08T09:01:00.868Z,54.85
2018-02-08T09:03:28.373Z,54.78
2018-02-08T09:05:55.885Z,54.48
2018-02-08T09:08:23.393Z,53.85
2018-02-08T09:10:50.903Z,52.93
2018-02-08T09:13:18.437Z,54.32
2018-02-08T09:15:45.950Z,53.56
2018-02-08T09:18:13.488Z,52.78
2018-02-08T09:20:41.032Z,52.78
2018-02-08T09:23:08.561Z,52.47
2018-02-08T09:25:36.092Z,50.97
2018-02-08T09:28:03.620Z,51.00
2018-02-08T09:30:31.138Z,49.76
2018-02-08T09:32:58.672Z,49.68
2018-02-08T09:35:26.192Z,48.90
2018-02-08T09:37:53.740Z,50.47
2018-02-08T09:40:21.264Z,49.59
2018-02-08T09:42:48.779Z,46.99
2018-02-08T09:45:16.289Z,49.43
2018-02-08T09:47:43.812Z,47.31
2018-02-08T09:50:11.434Z,47.92
2018-02-08T09:52:38.982Z,46.98
2018-02-08T09:55:06.509Z,45.61
2018-02-08T09:57:34.024Z,49.73
2018-02-08T10:00:01.556Z,45.22
2018-02-08T10:02:29.076Z,45.47
2018-02-08T10:04:56.595Z,43.27
2018-02-08T10:07:24.116Z,44.38
2018-02-08T10:09:51.665Z,50.05
2018-02-08T10:12:19.184Z,44.21
2018-02-08T10:14:46.741Z,45.76
2018-02-08T10:17:14.257Z,44.13
2018-02-08T10:19:41.812Z,43.25
2018-02-08T10:22:09.397Z,44.16
2018-02-08T10:24:36.900Z,46.86
2018-02-08T10:27:04.428Z,48.40
2018-02-08T10:29:31.950Z,45.37
2018-02-08T10:31:59.459Z,44.20
2018-02-08T10:34:26.982Z,41.82
2018-02-08T10:36:54.507Z,43.09
2018-02-08T10:39:22.028Z,41.71
2018-02-08T10:41:49.544Z,41.27
2018-02-08T10:44:17.066Z,43.92
2018-02-08T10:46:44.591Z,43.26
2018-02-08T10:49:12.137Z,45.62
2018-02-08T10:51:39.663Z,45.44
2018-02-08T10:54:07.189Z,43.54
2018-02-08T10:56:34.700Z,44.34
2018-02-08T10:59:02.214Z,45.45
2018-02-08T11:01:29.735Z,45.52
2018-02-08T11:03:57.260Z,45.83
2018-02-08T11:06:24.787Z,43.90
2018-02-08T11:08:52.321Z,43.96
2018-02-08T11:11:19.860Z,43.84
2018-02-08T11:13:47.389Z,43.24
2018-02-08T11:16:14.916Z,43.00
2018-02-08T11:18:42.470Z,43.71
2018-02-08T11:21:09.989Z,44.15
2018-02-08T11:23:37.497Z,44.82
2018-02-08T11:26:05.011Z,44.76
2018-02-08T11:28:32.527Z,45.25
2018-02-08T11:31:00.039Z,44.54
2018-02-08T11:33:27.567Z,45.22
2018-02-08T11:35:55.189Z,44.39
2018-02-08T11:38:22.692Z,45.42
2018-02-08T11:40:50.233Z,45.69
2018-02-08T11:43:17.769Z,44.93
2018-02-08T11:45:45.284Z,45.39
2018-02-08T11:48:12.795Z,45.58
2018-02-08T11:50:40.329Z,46.17
2018-02-08T11:53:07.873Z,45.83
2018-02-08T11:55:35.407Z,46.68
2018-02-08T11:58:02.929Z,46.45
2018-02-08T12:00:31.271Z,46.44
2018-02-08T12:02:58.786Z,46.74
2018-02-08T12:05:26.315Z,45.96
2018-02-08T12:07:53.832Z,46.92
2018-02-08T12:10:21.346Z,47.91
2018-02-08T12:12:48.862Z,48.25
2018-02-08T12:15:16.403Z,48.09
2018-02-08T12:17:43.916Z,48.05
2018-02-08T12:20:11.437Z,47.79
2018-02-08T12:22:38.956Z,48.29
2018-02-08T12:25:06.484Z,48.62
2018-02-08T12:27:33.996Z,48.26
2018-02-08T12:30:01.516Z,48.33
2018-02-08T12:32:29.149Z,48.20
2018-02-08T12:34:56.669Z,48.58
2018-02-08T12:37:24.185Z,49.13
2018-02-08T12:39:51.828Z,48.82
2018-02-08T12:42:19.343Z,49.29
2018-02-08T12:44:46.863Z,48.94
2018-02-08T12:47:14.404Z,48.79
2018-02-08T12:49:41.923Z,48.98
2018-02-08T12:52:09.442Z,49.21
2018-02-08T12:54:36.965Z,48.35
2018-02-08T12:57:04.485Z,48.97
2018-02-08T12:59:32.030Z,48.86
2018-02-08T13:01:59.544Z,48.77
2018-02-08T13:04:27.118Z,48.54
2018-02-08T13:06:54.633Z,48.67
2018-02-08T13:09:22.155Z,49.31
2018-02-08T13:11:49.668Z,49.27
2018-02-08T13:14:17.181Z,49.63
2018-02-08T13:16:44.701Z,48.75
2018-02-08T13:19:12.226Z,48.86
2018-02-08T13:21:39.760Z,48.89
2018-02-08T13:24:07.280Z,49.92
2018-02-08T13:26:34.806Z,49.41
2018-02-08T13:29:02.336Z,49.74
2018-02-08T13:31:30.288Z,49.92
2018-02-08T13:33:57.791Z,50.20
2018-02-08T13:36:30.849Z,49.76
2018-02-08T13:38:58.357Z,49.75
2018-02-08T13:41:25.867Z,49.69
2018-02-08T13:43:53.383Z,50.51
2018-02-08T13:46:20.901Z,50.13
2018-02-08T13:48:50.924Z,49.92
2018-02-08T13:51:24.008Z,50.67
2018-02-08T13:56:59.358Z,50.35
2018-02-08T14:02:41.637Z,50.29
2018-02-08T14:05:09.204Z,49.62
2018-02-08T14:07:36.734Z,50.14
2018-02-08T14:10:04.275Z,50.60
2018-02-08T14:12:31.822Z,50.48
2018-02-08T14:14:59.982Z,50.32
2018-02-08T15:36:24.531Z,55.39
2018-02-08T15:38:52.142Z,55.72
2018-02-08T15:41:19.714Z,55.51
2018-02-08T15:43:48.150Z,55.35
2018-02-08T15:46:15.743Z,55.49
2018-02-08T15:48:43.307Z,55.91
2018-02-08T15:51:10.899Z,56.09
2018-02-08T15:53:40.448Z,55.71
2018-02-08T15:56:09.066Z,56.53
2018-02-08T15:58:37.496Z,56.88
2018-02-08T16:01:05.072Z,57.48
2018-02-08T16:03:32.662Z,58.00
2018-02-08T16:06:00.588Z,57.41
2018-02-08T16:08:28.178Z,58.44
2018-02-08T16:10:56.403Z,58.78
2018-02-08T16:13:24.545Z,59.34
2018-02-08T16:15:52.115Z,58.53
2018-02-08T16:18:19.688Z,59.26
2018-02-08T16:20:48.053Z,59.88
2018-02-08T16:23:15.627Z,60.27
2018-02-08T16:25:43.901Z,60.10
2018-02-08T16:28:11.474Z,60.54
2018-02-08T16:30:39.044Z,60.82
2018-02-08T16:33:06.650Z,60.86
2018-02-08T16:35:34.241Z,61.33
2018-02-08T16:38:01.812Z,61.31
2018-02-08T16:40:29.395Z,60.66
2018-02-08T16:42:58.689Z,60.86
2018-02-08T16:45:26.274Z,60.64
2018-02-08T16:47:53.933Z,61.72
2018-02-08T16:50:21.514Z,62.13
2018-02-08T16:52:49.074Z,62.52
2018-02-08T16:55:16.643Z,62.46
2018-02-08T16:57:44.310Z,61.91
2018-02-08T17:00:11.930Z,62.11
2018-02-08T17:02:41.732Z,63.53
2018-02-08T17:05:10.052Z,63.04
2018-02-08T17:07:37.644Z,63.94
2018-02-08T17:10:05.741Z,63.88
2018-02-08T17:12:34.104Z,63.81
2018-02-08T17:15:01.823Z,63.66
2018-02-08T17:17:29.449Z,63.22
2018-02-08T17:19:57.025Z,63.18
2018-02-08T17:22:24.918Z,63.41
2018-02-08T17:24:53.120Z,63.16
2018-02-08T17:27:20.744Z,63.50
2018-02-08T17:29:48.324Z,63.72
2018-02-08T17:32:17.673Z,63.83
2018-02-08T17:34:45.295Z,63.71
2018-02-08T17:37:12.896Z,63.90
2018-02-08T17:39:46.890Z,64.18
2018-02-08T17:42:27.472Z,64.30
2018-02-08T17:44:59.162Z,64.56
2018-02-08T17:47:29.338Z,66.04
2018-02-08T17:49:58.156Z,65.25
2018-02-08T17:52:25.775Z,64.17
2018-02-08T17:54:54.988Z,65.02
2018-02-08T17:57:23.785Z,64.48
2018-02-08T17:59:55.118Z,65.17
2018-02-08T18:02:23.571Z,65.30
2018-02-08T18:04:54.194Z,65.14
2018-02-08T18:07:21.803Z,64.52
2018-02-08T18:09:49.545Z,64.80
2018-02-08T18:12:19.979Z,65.25
2018-02-08T18:14:49.435Z,64.94
2018-02-08T18:17:17.031Z,65.13
2018-02-08T18:19:45.333Z,65.10
2018-02-08T18:22:14.178Z,64.74
2018-02-08T18:24:42.562Z,64.72
2018-02-08T18:27:12.219Z,64.53
2018-02-08T18:29:39.958Z,64.20
2018-02-08T19:45:04.670Z,68.03
2018-02-08T19:47:33.558Z,67.53
2018-02-08T19:50:01.366Z,67.91
2018-02-08T19:52:28.970Z,68.38
2018-02-08T19:54:59.116Z,68.26
2018-02-08T19:57:27.683Z,68.74
2018-02-08T19:59:56.475Z,68.41
2018-02-08T20:02:25.550Z,68.80
2018-02-08T20:04:55.452Z,69.01
2018-02-08T20:07:24.577Z,68.56
2018-02-08T20:09:56.783Z,68.50
2018-02-08T20:12:33.330Z,68.43
2018-02-08T20:28:27.526Z,68.11
2018-02-08T20:31:01.626Z,68.69
2018-02-08T20:33:29.961Z,68.25
2018-02-08T20:35:57.863Z,67.13
2018-02-08T20:38:40.058Z,68.60
2018-02-08T20:41:14.075Z,67.46
2018-02-08T20:43:42.906Z,66.10
2018-02-08T20:46:10.445Z,66.57
2018-02-08T20:53:56.546Z,65.88
2018-02-08T20:56:33.581Z,66.51
2018-02-08T20:59:02.009Z,66.25
2018-02-08T21:01:29.580Z,66.24
2018-02-08T21:03:58.569Z,66.06
2018-02-08T21:06:28.989Z,66.30
2018-02-08T21:08:58.278Z,66.41
2018-02-08T21:11:29.726Z,66.65
2018-02-08T21:13:57.285Z,66.62
2018-02-08T21:16:24.841Z,66.37
2018-02-08T21:18:52.474Z,66.68
2018-02-08T21:21:20.038Z,67.51
2018-02-08T21:23:47.570Z,67.28
2018-02-08T21:26:15.097Z,67.46
2018-02-08T21:28:42.723Z,67.18
2018-02-08T21:31:10.270Z,67.60
2018-02-08T21:33:37.810Z,67.81
2018-02-08T21:36:05.346Z,67.67
2018-02-08T21:38:32.896Z,67.53
2018-02-08T21:41:00.434Z,67.86
2018-02-08T21:43:27.966Z,68.22
2018-02-08T21:45:58.272Z,68.32
2018-02-08T21:48:25.833Z,68.71
2018-02-08T21:50:53.983Z,68.34
2018-02-08T21:53:21.528Z,68.64
2018-02-08T21:55:49.080Z,68.81
2018-02-08T21:58:16.600Z,69.10
2018-02-08T22:00:44.118Z,68.93
2018-02-08T22:03:11.633Z,68.84
2018-02-08T22:05:39.181Z,68.80
2018-02-08T22:08:06.752Z,68.52
2018-02-08T22:10:34.329Z,69.26
2018-02-08T22:13:01.851Z,68.92
2018-02-08T22:15:29.375Z,69.07
2018-02-08T22:17:57.019Z,69.16
2018-02-08T22:20:24.715Z,68.88
2018-02-08T22:22:52.235Z,69.12
2018-02-08T22:25:19.760Z,69.31
2018-02-08T22:27:47.291Z,69.62
2018-02-08T22:30:14.814Z,69.19
2018-02-08T22:32:42.453Z,69.53
2018-02-08T22:35:10.044Z,69.59
2018-02-08T22:37:37.585Z,69.43
2018-02-08T22:40:05.116Z,69.79
2018-02-08T22:42:34.216Z,69.81
2018-02-08T22:45:03.181Z,69.86
2018-02-08T22:47:31.441Z,69.75
2018-02-08T22:50:01.021Z,69.78
2018-02-08T22:52:29.259Z,69.51
2018-02-08T22:54:59.965Z,69.91
2018-02-08T22:57:28.781Z,69.55
2018-02-08T22:59:57.022Z,69.65
2018-02-08T23:02:27.290Z,69.95
2018-02-08T23:04:56.935Z,69.83
2018-02-08T23:07:25.753Z,69.91
2018-02-08T23:09:54.034Z,70.15
2018-02-08T23:12:22.863Z,69.94
2018-02-08T23:14:52.409Z,70.12
2018-02-08T23:17:21.078Z,70.10
2018-02-08T23:19:53.455Z,70.31
2018-02-08T23:22:21.863Z,70.17
2018-02-08T23:24:50.972Z,70.14
2018-02-08T23:27:18.479Z,70.25
2018-02-08T23:29:46.002Z,70.14
2018-02-08T23:32:13.541Z,70.24
2018-02-08T23:34:41.689Z,70.44
2018-02-08T23:37:10.817Z,70.68
2018-02-08T23:39:39.172Z,70.68
2018-02-08T23:42:07.996Z,70.77
2018-02-08T23:44:37.208Z,70.59
2018-02-08T23:47:06.398Z,70.42
2018-02-08T23:49:34.796Z,70.81
2018-02-08T23:52:05.236Z,70.64
2018-02-08T23:54:33.928Z,71.09
2018-02-08T23:57:04.677Z,70.37
2018-02-08T23:59:34.736Z,70.59
